sensor_id;sensor_type;location;lat;lon;timestamp;P1;durP1;ratioP1;P2;durP2;ratioP2
4694;SDS011;2361;49.540;8.390;2023-04-25T00:02:13;1.43;;;1.33;;
4694;SDS011;2361;49.540;8.390;2023-04-25T00:04:40;1.20;;;1.20;;
4694;SDS011;2361;49.540;8.390;2023-04-25T00:07:07;1.93;;;1.70;;
4694;SDS011;2361;49.540;8.390;2023-04-25T00:09:34;1.83;;;1.73;;
4694;SDS011;2361;49.540;8.390;2023-04-25T00:12:01;1.63;;;1.53;;
4694;SDS011;2361;49.540;8.390;2023-04-25T00:14:29;1.50;;;1.40;;
4694;SDS011;2361;49.540;8.390;2023-04-25T00:16:56;1.23;;;1.23;;
4694;SDS011;2361;49.540;8.390;2023-04-25T00:19:24;1.47;;;1.47;;
4694;SDS011;2361;49.540;8.390;2023-04-25T00:21:51;1.57;;;1.43;;
4694;SDS011;2361;49.540;8.390;2023-04-25T00:24:17;1.53;;;1.47;;
4694;SDS011;2361;49.540;8.390;2023-04-25T00:26:45;1.40;;;1.40;;
4694;SDS011;2361;49.540;8.390;2023-04-25T00:29:12;1.97;;;1.50;;
4694;SDS011;2361;49.540;8.390;2023-04-25T00:31:39;1.53;;;1.40;;
4694;SDS011;2361;49.540;8.390;2023-04-25T00:34:06;1.20;;;1.20;;
4694;SDS011;2361;49.540;8.390;2023-04-25T00:36:34;1.47;;;1.47;;
4694;SDS011;2361;49.540;8.390;2023-04-25T00:39:01;1.10;;;1.10;;
4694;SDS011;2361;49.540;8.390;2023-04-25T00:41:30;2.37;;;2.10;;
4694;SDS011;2361;49.540;8.390;2023-04-25T00:43:57;1.53;;;1.53;;
4694;SDS011;2361;49.540;8.390;2023-04-25T00:46:26;1.80;;;1.50;;
4694;SDS011;2361;49.540;8.390;2023-04-25T00:48:53;1.60;;;1.50;;
4694;SDS011;2361;49.540;8.390;2023-04-25T00:51:20;2.27;;;2.10;;
4694;SDS011;2361;49.540;8.390;2023-04-25T00:53:48;2.27;;;2.17;;
4694;SDS011;2361;49.540;8.390;2023-04-25T00:56:16;2.20;;;1.87;;
4694;SDS011;2361;49.540;8.390;2023-04-25T00:58:44;1.50;;;1.33;;
4694;SDS011;2361;49.540;8.390;2023-04-25T01:01:11;1.90;;;1.47;;
4694;SDS011;2361;49.540;8.390;2023-04-25T01:03:39;1.63;;;1.60;;
4694;SDS011;2361;49.540;8.390;2023-04-25T01:06:08;1.70;;;1.60;;
4694;SDS011;2361;49.540;8.390;2023-04-25T01:08:37;1.97;;;1.87;;
4694;SDS011;2361;49.540;8.390;2023-04-25T01:11:05;1.73;;;1.60;;
4694;SDS011;2361;49.540;8.390;2023-04-25T01:13:32;2.47;;;2.30;;
4694;SDS011;2361;49.540;8.390;2023-04-25T01:16:01;1.83;;;1.73;;
4694;SDS011;2361;49.540;8.390;2023-04-25T01:18:29;1.43;;;1.33;;
4694;SDS011;2361;49.540;8.390;2023-04-25T01:20:56;1.90;;;1.80;;
4694;SDS011;2361;49.540;8.390;2023-04-25T01:23:36;1.70;;;1.60;;
4694;SDS011;2361;49.540;8.390;2023-04-25T01:26:05;2.30;;;1.97;;
4694;SDS011;2361;49.540;8.390;2023-04-25T01:28:35;2.00;;;1.90;;
4694;SDS011;2361;49.540;8.390;2023-04-25T01:31:03;1.57;;;1.47;;
4694;SDS011;2361;49.540;8.390;2023-04-25T01:33:32;1.90;;;1.80;;
4694;SDS011;2361;49.540;8.390;2023-04-25T01:35:59;1.43;;;1.40;;
4694;SDS011;2361;49.540;8.390;2023-04-25T01:38:26;2.10;;;1.70;;
4694;SDS011;2361;49.540;8.390;2023-04-25T01:40:53;1.90;;;1.80;;
4694;SDS011;2361;49.540;8.390;2023-04-25T01:43:21;2.37;;;2.13;;
4694;SDS011;2361;49.540;8.390;2023-04-25T01:45:49;1.53;;;1.47;;
4694;SDS011;2361;49.540;8.390;2023-04-25T01:48:17;2.23;;;2.03;;
4694;SDS011;2361;49.540;8.390;2023-04-25T01:50:44;3.27;;;2.07;;
4694;SDS011;2361;49.540;8.390;2023-04-25T01:53:12;1.97;;;1.87;;
4694;SDS011;2361;49.540;8.390;2023-04-25T01:55:40;2.40;;;2.20;;
4694;SDS011;2361;49.540;8.390;2023-04-25T01:58:08;2.03;;;1.93;;
4694;SDS011;2361;49.540;8.390;2023-04-25T02:00:39;1.93;;;1.83;;
4694;SDS011;2361;49.540;8.390;2023-04-25T02:03:07;1.93;;;1.63;;
4694;SDS011;2361;49.540;8.390;2023-04-25T02:05:38;2.23;;;2.10;;
4694;SDS011;2361;49.540;8.390;2023-04-25T02:08:09;1.77;;;1.67;;
4694;SDS011;2361;49.540;8.390;2023-04-25T02:10:36;2.20;;;2.07;;
4694;SDS011;2361;49.540;8.390;2023-04-25T02:13:03;2.00;;;1.87;;
4694;SDS011;2361;49.540;8.390;2023-04-25T02:15:31;2.40;;;2.20;;
4694;SDS011;2361;49.540;8.390;2023-04-25T02:17:58;2.50;;;2.10;;
4694;SDS011;2361;49.540;8.390;2023-04-25T02:20:27;2.33;;;2.13;;
4694;SDS011;2361;49.540;8.390;2023-04-25T02:22:56;4.80;;;3.00;;
4694;SDS011;2361;49.540;8.390;2023-04-25T02:25:23;2.63;;;2.40;;
4694;SDS011;2361;49.540;8.390;2023-04-25T02:27:50;2.40;;;2.20;;
4694;SDS011;2361;49.540;8.390;2023-04-25T02:30:17;2.17;;;1.97;;
4694;SDS011;2361;49.540;8.390;2023-04-25T02:32:44;2.43;;;2.23;;
4694;SDS011;2361;49.540;8.390;2023-04-25T02:35:12;1.73;;;1.63;;
4694;SDS011;2361;49.540;8.390;2023-04-25T02:37:39;2.40;;;2.13;;
4694;SDS011;2361;49.540;8.390;2023-04-25T02:40:06;2.87;;;2.47;;
4694;SDS011;2361;49.540;8.390;2023-04-25T02:42:34;2.63;;;2.50;;
4694;SDS011;2361;49.540;8.390;2023-04-25T02:45:02;2.50;;;2.30;;
4694;SDS011;2361;49.540;8.390;2023-04-25T02:47:30;2.90;;;2.20;;
4694;SDS011;2361;49.540;8.390;2023-04-25T02:49:57;2.77;;;2.47;;
4694;SDS011;2361;49.540;8.390;2023-04-25T02:52:24;2.70;;;2.50;;
4694;SDS011;2361;49.540;8.390;2023-04-25T02:54:51;2.80;;;2.60;;
4694;SDS011;2361;49.540;8.390;2023-04-25T02:57:18;2.53;;;2.37;;
4694;SDS011;2361;49.540;8.390;2023-04-25T02:59:45;2.40;;;2.23;;
4694;SDS011;2361;49.540;8.390;2023-04-25T03:02:12;2.13;;;2.00;;
4694;SDS011;2361;49.540;8.390;2023-04-25T03:04:39;2.53;;;2.40;;
4694;SDS011;2361;49.540;8.390;2023-04-25T03:07:06;4.30;;;2.77;;
4694;SDS011;2361;49.540;8.390;2023-04-25T03:09:34;3.10;;;2.87;;
4694;SDS011;2361;49.540;8.390;2023-04-25T03:12:01;2.33;;;2.23;;
4694;SDS011;2361;49.540;8.390;2023-04-25T03:14:28;3.10;;;2.63;;
4694;SDS011;2361;49.540;8.390;2023-04-25T03:16:55;2.47;;;2.27;;
4694;SDS011;2361;49.540;8.390;2023-04-25T03:19:22;2.23;;;2.13;;
4694;SDS011;2361;49.540;8.390;2023-04-25T03:21:49;3.40;;;3.00;;
4694;SDS011;2361;49.540;8.390;2023-04-25T03:24:16;2.30;;;2.10;;
4694;SDS011;2361;49.540;8.390;2023-04-25T03:26:42;3.00;;;2.70;;
4694;SDS011;2361;49.540;8.390;2023-04-25T03:29:09;3.43;;;3.00;;
4694;SDS011;2361;49.540;8.390;2023-04-25T03:31:37;3.70;;;2.90;;
4694;SDS011;2361;49.540;8.390;2023-04-25T03:34:04;2.67;;;2.47;;
4694;SDS011;2361;49.540;8.390;2023-04-25T03:36:31;3.70;;;3.10;;
4694;SDS011;2361;49.540;8.390;2023-04-25T03:38:59;2.67;;;2.53;;
4694;SDS011;2361;49.540;8.390;2023-04-25T03:41:26;2.80;;;2.60;;
4694;SDS011;2361;49.540;8.390;2023-04-25T03:43:54;3.20;;;2.90;;
4694;SDS011;2361;49.540;8.390;2023-04-25T03:46:21;2.10;;;2.00;;
4694;SDS011;2361;49.540;8.390;2023-04-25T03:48:48;3.33;;;3.03;;
4694;SDS011;2361;49.540;8.390;2023-04-25T03:51:15;3.07;;;2.77;;
4694;SDS011;2361;49.540;8.390;2023-04-25T03:53:42;3.60;;;2.60;;
4694;SDS011;2361;49.540;8.390;2023-04-25T03:56:08;4.53;;;3.00;;
4694;SDS011;2361;49.540;8.390;2023-04-25T03:58:36;2.57;;;2.37;;
4694;SDS011;2361;49.540;8.390;2023-04-25T04:01:03;3.80;;;3.27;;
4694;SDS011;2361;49.540;8.390;2023-04-25T04:03:33;2.90;;;2.60;;
4694;SDS011;2361;49.540;8.390;2023-04-25T04:06:03;3.80;;;3.03;;
4694;SDS011;2361;49.540;8.390;2023-04-25T04:08:32;4.97;;;3.07;;
4694;SDS011;2361;49.540;8.390;2023-04-25T04:10:59;3.60;;;3.07;;
4694;SDS011;2361;49.540;8.390;2023-04-25T04:13:26;3.53;;;3.17;;
4694;SDS011;2361;49.540;8.390;2023-04-25T04:15:55;3.30;;;2.97;;
4694;SDS011;2361;49.540;8.390;2023-04-25T04:18:22;3.70;;;3.03;;
4694;SDS011;2361;49.540;8.390;2023-04-25T04:20:49;5.73;;;4.33;;
4694;SDS011;2361;49.540;8.390;2023-04-25T04:23:16;6.93;;;3.53;;
4694;SDS011;2361;49.540;8.390;2023-04-25T04:25:43;5.10;;;3.40;;
4694;SDS011;2361;49.540;8.390;2023-04-25T04:28:11;2.90;;;2.70;;
4694;SDS011;2361;49.540;8.390;2023-04-25T04:30:39;5.50;;;3.60;;
4694;SDS011;2361;49.540;8.390;2023-04-25T04:33:07;4.80;;;3.30;;
4694;SDS011;2361;49.540;8.390;2023-04-25T04:35:35;4.03;;;3.30;;
4694;SDS011;2361;49.540;8.390;2023-04-25T04:38:02;5.97;;;3.30;;
4694;SDS011;2361;49.540;8.390;2023-04-25T04:40:29;4.70;;;2.97;;
4694;SDS011;2361;49.540;8.390;2023-04-25T04:42:59;3.87;;;3.30;;
4694;SDS011;2361;49.540;8.390;2023-04-25T04:45:26;5.93;;;3.20;;
4694;SDS011;2361;49.540;8.390;2023-04-25T04:47:53;4.13;;;3.57;;
4694;SDS011;2361;49.540;8.390;2023-04-25T04:50:21;3.83;;;3.43;;
4694;SDS011;2361;49.540;8.390;2023-04-25T04:52:48;4.20;;;3.30;;
4694;SDS011;2361;49.540;8.390;2023-04-25T04:55:16;4.80;;;3.20;;
4694;SDS011;2361;49.540;8.390;2023-04-25T04:57:42;5.50;;;4.03;;
4694;SDS011;2361;49.540;8.390;2023-04-25T05:00:10;4.03;;;3.57;;
4694;SDS011;2361;49.540;8.390;2023-04-25T05:02:38;7.50;;;4.60;;
4694;SDS011;2361;49.540;8.390;2023-04-25T05:05:05;5.97;;;3.90;;
4694;SDS011;2361;49.540;8.390;2023-04-25T05:07:33;4.73;;;3.90;;
4694;SDS011;2361;49.540;8.390;2023-04-25T05:10:00;4.50;;;3.53;;
4694;SDS011;2361;49.540;8.390;2023-04-25T05:12:27;5.90;;;4.50;;
4694;SDS011;2361;49.540;8.390;2023-04-25T05:14:54;8.20;;;5.17;;
4694;SDS011;2361;49.540;8.390;2023-04-25T05:17:21;7.23;;;5.37;;
4694;SDS011;2361;49.540;8.390;2023-04-25T05:19:48;7.00;;;4.50;;
4694;SDS011;2361;49.540;8.390;2023-04-25T05:22:16;8.83;;;6.07;;
4694;SDS011;2361;49.540;8.390;2023-04-25T05:24:43;6.03;;;4.33;;
4694;SDS011;2361;49.540;8.390;2023-04-25T05:27:10;7.73;;;4.90;;
4694;SDS011;2361;49.540;8.390;2023-04-25T05:29:37;8.13;;;5.00;;
4694;SDS011;2361;49.540;8.390;2023-04-25T05:32:04;6.37;;;4.50;;
4694;SDS011;2361;49.540;8.390;2023-04-25T05:34:31;6.00;;;5.13;;
4694;SDS011;2361;49.540;8.390;2023-04-25T05:36:58;7.37;;;5.43;;
4694;SDS011;2361;49.540;8.390;2023-04-25T05:39:25;7.30;;;4.53;;
4694;SDS011;2361;49.540;8.390;2023-04-25T05:41:52;4.70;;;3.63;;
4694;SDS011;2361;49.540;8.390;2023-04-25T05:44:19;6.70;;;4.40;;
4694;SDS011;2361;49.540;8.390;2023-04-25T05:46:47;7.57;;;4.17;;
4694;SDS011;2361;49.540;8.390;2023-04-25T05:49:14;5.90;;;4.60;;
4694;SDS011;2361;49.540;8.390;2023-04-25T05:51:43;3.83;;;3.30;;
4694;SDS011;2361;49.540;8.390;2023-04-25T05:54:10;6.57;;;5.27;;
4694;SDS011;2361;49.540;8.390;2023-04-25T05:56:37;6.20;;;4.73;;
4694;SDS011;2361;49.540;8.390;2023-04-25T05:59:04;6.60;;;5.00;;
4694;SDS011;2361;49.540;8.390;2023-04-25T06:01:31;6.17;;;4.10;;
4694;SDS011;2361;49.540;8.390;2023-04-25T06:03:58;5.50;;;4.50;;
4694;SDS011;2361;49.540;8.390;2023-04-25T06:06:25;6.27;;;4.80;;
4694;SDS011;2361;49.540;8.390;2023-04-25T06:08:53;5.90;;;4.77;;
4694;SDS011;2361;49.540;8.390;2023-04-25T06:11:20;7.70;;;6.20;;
4694;SDS011;2361;49.540;8.390;2023-04-25T06:13:47;6.13;;;5.53;;
4694;SDS011;2361;49.540;8.390;2023-04-25T06:16:14;5.70;;;4.60;;
4694;SDS011;2361;49.540;8.390;2023-04-25T06:18:41;8.40;;;5.50;;
4694;SDS011;2361;49.540;8.390;2023-04-25T06:21:08;7.73;;;6.07;;
4694;SDS011;2361;49.540;8.390;2023-04-25T06:23:35;5.67;;;4.80;;
4694;SDS011;2361;49.540;8.390;2023-04-25T06:26:02;7.03;;;5.30;;
4694;SDS011;2361;49.540;8.390;2023-04-25T06:28:30;7.93;;;5.57;;
4694;SDS011;2361;49.540;8.390;2023-04-25T06:30:57;6.90;;;5.63;;
4694;SDS011;2361;49.540;8.390;2023-04-25T06:33:24;9.63;;;5.43;;
4694;SDS011;2361;49.540;8.390;2023-04-25T06:35:51;3.73;;;3.23;;
4694;SDS011;2361;49.540;8.390;2023-04-25T06:38:18;4.37;;;3.97;;
4694;SDS011;2361;49.540;8.390;2023-04-25T06:40:45;6.77;;;4.53;;
4694;SDS011;2361;49.540;8.390;2023-04-25T06:43:11;7.80;;;4.27;;
4694;SDS011;2361;49.540;8.390;2023-04-25T06:45:38;7.53;;;5.17;;
4694;SDS011;2361;49.540;8.390;2023-04-25T06:48:06;20.00;;;5.40;;
4694;SDS011;2361;49.540;8.390;2023-04-25T06:50:33;7.23;;;4.60;;
4694;SDS011;2361;49.540;8.390;2023-04-25T06:53:00;2.20;;;2.00;;
4694;SDS011;2361;49.540;8.390;2023-04-25T06:55:27;5.97;;;4.90;;
4694;SDS011;2361;49.540;8.390;2023-04-25T06:57:54;8.80;;;4.93;;
4694;SDS011;2361;49.540;8.390;2023-04-25T07:00:21;5.50;;;3.70;;
4694;SDS011;2361;49.540;8.390;2023-04-25T07:02:48;6.33;;;3.80;;
4694;SDS011;2361;49.540;8.390;2023-04-25T07:05:16;8.07;;;4.03;;
4694;SDS011;2361;49.540;8.390;2023-04-25T07:07:44;8.23;;;4.20;;
4694;SDS011;2361;49.540;8.390;2023-04-25T07:10:11;6.87;;;4.37;;
4694;SDS011;2361;49.540;8.390;2023-04-25T07:12:38;5.40;;;3.13;;
4694;SDS011;2361;49.540;8.390;2023-04-25T07:15:05;9.37;;;4.40;;
4694;SDS011;2361;49.540;8.390;2023-04-25T07:17:34;7.67;;;4.97;;
4694;SDS011;2361;49.540;8.390;2023-04-25T07:20:01;7.70;;;4.73;;
4694;SDS011;2361;49.540;8.390;2023-04-25T07:22:29;7.33;;;3.40;;
4694;SDS011;2361;49.540;8.390;2023-04-25T07:24:56;8.13;;;4.07;;
4694;SDS011;2361;49.540;8.390;2023-04-25T07:27:23;10.23;;;3.80;;
4694;SDS011;2361;49.540;8.390;2023-04-25T07:29:50;8.07;;;4.53;;
4694;SDS011;2361;49.540;8.390;2023-04-25T07:32:17;8.10;;;5.00;;
4694;SDS011;2361;49.540;8.390;2023-04-25T07:34:44;14.40;;;5.33;;
4694;SDS011;2361;49.540;8.390;2023-04-25T07:37:11;6.47;;;4.30;;
4694;SDS011;2361;49.540;8.390;2023-04-25T07:39:40;8.37;;;5.00;;
4694;SDS011;2361;49.540;8.390;2023-04-25T07:42:08;9.97;;;4.87;;
4694;SDS011;2361;49.540;8.390;2023-04-25T07:44:34;7.50;;;5.20;;
4694;SDS011;2361;49.540;8.390;2023-04-25T07:47:05;9.60;;;4.70;;
4694;SDS011;2361;49.540;8.390;2023-04-25T07:49:38;9.13;;;3.93;;
4694;SDS011;2361;49.540;8.390;2023-04-25T07:52:06;7.57;;;4.47;;
4694;SDS011;2361;49.540;8.390;2023-04-25T07:54:34;12.03;;;4.37;;
4694;SDS011;2361;49.540;8.390;2023-04-25T07:57:01;9.40;;;5.80;;
4694;SDS011;2361;49.540;8.390;2023-04-25T07:59:28;6.40;;;4.70;;
4694;SDS011;2361;49.540;8.390;2023-04-25T08:01:56;8.83;;;5.40;;
4694;SDS011;2361;49.540;8.390;2023-04-25T08:04:23;9.87;;;5.30;;
4694;SDS011;2361;49.540;8.390;2023-04-25T08:06:52;9.67;;;5.00;;
4694;SDS011;2361;49.540;8.390;2023-04-25T08:09:20;8.73;;;5.00;;
4694;SDS011;2361;49.540;8.390;2023-04-25T08:11:47;5.37;;;4.20;;
4694;SDS011;2361;49.540;8.390;2023-04-25T08:14:14;5.83;;;4.10;;
4694;SDS011;2361;49.540;8.390;2023-04-25T08:16:41;6.03;;;4.27;;
4694;SDS011;2361;49.540;8.390;2023-04-25T08:19:09;8.90;;;4.77;;
4694;SDS011;2361;49.540;8.390;2023-04-25T08:21:37;7.47;;;3.93;;
4694;SDS011;2361;49.540;8.390;2023-04-25T08:24:04;10.20;;;4.50;;
4694;SDS011;2361;49.540;8.390;2023-04-25T08:26:31;6.37;;;3.43;;
4694;SDS011;2361;49.540;8.390;2023-04-25T08:28:59;7.50;;;5.03;;
4694;SDS011;2361;49.540;8.390;2023-04-25T08:31:26;5.73;;;4.33;;
4694;SDS011;2361;49.540;8.390;2023-04-25T08:33:53;6.37;;;4.07;;
4694;SDS011;2361;49.540;8.390;2023-04-25T08:36:20;3.70;;;3.30;;
4694;SDS011;2361;49.540;8.390;2023-04-25T08:39:03;7.40;;;3.90;;
4694;SDS011;2361;49.540;8.390;2023-04-25T08:41:30;4.43;;;3.20;;
4694;SDS011;2361;49.540;8.390;2023-04-25T08:43:57;8.57;;;4.13;;
4694;SDS011;2361;49.540;8.390;2023-04-25T08:46:26;7.90;;;4.10;;
4694;SDS011;2361;49.540;8.390;2023-04-25T08:48:54;8.27;;;3.43;;
4694;SDS011;2361;49.540;8.390;2023-04-25T08:51:27;4.17;;;3.70;;
4694;SDS011;2361;49.540;8.390;2023-04-25T08:54:08;7.50;;;5.13;;
4694;SDS011;2361;49.540;8.390;2023-04-25T08:56:55;5.60;;;3.97;;
4694;SDS011;2361;49.540;8.390;2023-04-25T08:59:24;5.20;;;3.70;;
4694;SDS011;2361;49.540;8.390;2023-04-25T09:01:52;4.17;;;2.80;;
4694;SDS011;2361;49.540;8.390;2023-04-25T09:04:19;4.07;;;2.90;;
4694;SDS011;2361;49.540;8.390;2023-04-25T09:06:47;4.90;;;3.83;;
4694;SDS011;2361;49.540;8.390;2023-04-25T09:09:14;5.30;;;3.00;;
4694;SDS011;2361;49.540;8.390;2023-04-25T09:11:41;4.10;;;2.90;;
4694;SDS011;2361;49.540;8.390;2023-04-25T09:14:16;3.17;;;2.87;;
4694;SDS011;2361;49.540;8.390;2023-04-25T09:19:23;9.13;;;4.00;;
4694;SDS011;2361;49.540;8.390;2023-04-25T09:22:05;8.30;;;2.97;;
4694;SDS011;2361;49.540;8.390;2023-04-25T09:24:39;5.20;;;3.10;;
4694;SDS011;2361;49.540;8.390;2023-04-25T09:27:10;4.83;;;2.63;;
4694;SDS011;2361;49.540;8.390;2023-04-25T09:29:39;4.17;;;3.23;;
4694;SDS011;2361;49.540;8.390;2023-04-25T09:34:49;8.20;;;3.10;;
4694;SDS011;2361;49.540;8.390;2023-04-25T09:37:22;8.87;;;3.77;;
4694;SDS011;2361;49.540;8.390;2023-04-25T09:39:57;5.13;;;3.50;;
4694;SDS011;2361;49.540;8.390;2023-04-25T09:42:28;8.57;;;3.87;;
4694;SDS011;2361;49.540;8.390;2023-04-25T09:44:58;4.40;;;3.80;;
4694;SDS011;2361;49.540;8.390;2023-04-25T09:47:28;3.80;;;3.50;;
4694;SDS011;2361;49.540;8.390;2023-04-25T09:49:55;3.80;;;2.87;;
4694;SDS011;2361;49.540;8.390;2023-04-25T09:52:23;4.40;;;3.40;;
4694;SDS011;2361;49.540;8.390;2023-04-25T09:54:51;4.10;;;3.70;;
4694;SDS011;2361;49.540;8.390;2023-04-25T09:57:23;3.10;;;2.60;;
4694;SDS011;2361;49.540;8.390;2023-04-25T09:59:51;5.70;;;3.50;;
4694;SDS011;2361;49.540;8.390;2023-04-25T10:02:24;3.53;;;3.10;;
4694;SDS011;2361;49.540;8.390;2023-04-25T10:04:54;4.67;;;3.77;;
4694;SDS011;2361;49.540;8.390;2023-04-25T10:07:22;3.07;;;2.77;;
4694;SDS011;2361;49.540;8.390;2023-04-25T10:09:55;2.23;;;2.13;;
4694;SDS011;2361;49.540;8.390;2023-04-25T10:12:30;4.00;;;3.40;;
4694;SDS011;2361;49.540;8.390;2023-04-25T10:14:57;2.30;;;2.10;;
4694;SDS011;2361;49.540;8.390;2023-04-25T10:17:28;2.10;;;2.00;;
4694;SDS011;2361;49.540;8.390;2023-04-25T10:19:56;2.90;;;2.20;;
4694;SDS011;2361;49.540;8.390;2023-04-25T10:22:26;3.50;;;2.10;;
4694;SDS011;2361;49.540;8.390;2023-04-25T10:24:59;2.60;;;2.40;;
4694;SDS011;2361;49.540;8.390;2023-04-25T10:27:30;2.77;;;2.00;;
4694;SDS011;2361;49.540;8.390;2023-04-25T10:30:00;2.27;;;2.17;;
4694;SDS011;2361;49.540;8.390;2023-04-25T10:32:32;5.00;;;3.07;;
4694;SDS011;2361;49.540;8.390;2023-04-25T10:35:45;2.83;;;2.63;;
4694;SDS011;2361;49.540;8.390;2023-04-25T10:38:05;3.83;;;3.00;;
4694;SDS011;2361;49.540;8.390;2023-04-25T10:40:38;3.37;;;3.10;;
4694;SDS011;2361;49.540;8.390;2023-04-25T10:46:00;5.03;;;2.73;;
4694;SDS011;2361;49.540;8.390;2023-04-25T10:48:28;2.43;;;2.33;;
4694;SDS011;2361;49.540;8.390;2023-04-25T10:51:15;2.13;;;1.93;;
4694;SDS011;2361;49.540;8.390;2023-04-25T10:53:45;3.13;;;2.83;;
4694;SDS011;2361;49.540;8.390;2023-04-25T10:56:33;4.27;;;3.60;;
4694;SDS011;2361;49.540;8.390;2023-04-25T10:59:11;5.60;;;2.50;;
4694;SDS011;2361;49.540;8.390;2023-04-25T11:01:44;1.93;;;1.73;;
4694;SDS011;2361;49.540;8.390;2023-04-25T11:09:49;3.70;;;2.63;;
4694;SDS011;2361;49.540;8.390;2023-04-25T11:12:16;4.90;;;2.93;;
4694;SDS011;2361;49.540;8.390;2023-04-25T11:14:43;2.87;;;2.70;;
4694;SDS011;2361;49.540;8.390;2023-04-25T11:17:10;4.33;;;3.30;;
4694;SDS011;2361;49.540;8.390;2023-04-25T11:19:37;3.67;;;3.30;;
4694;SDS011;2361;49.540;8.390;2023-04-25T11:22:04;4.10;;;3.70;;
4694;SDS011;2361;49.540;8.390;2023-04-25T11:24:33;3.30;;;3.00;;
4694;SDS011;2361;49.540;8.390;2023-04-25T11:27:02;2.10;;;2.00;;
4694;SDS011;2361;49.540;8.390;2023-04-25T11:29:30;3.70;;;3.40;;
4694;SDS011;2361;49.540;8.390;2023-04-25T11:31:59;5.03;;;3.67;;
4694;SDS011;2361;49.540;8.390;2023-04-25T11:34:27;3.30;;;3.00;;
4694;SDS011;2361;49.540;8.390;2023-04-25T11:36:59;1.90;;;1.80;;
4694;SDS011;2361;49.540;8.390;2023-04-25T11:39:30;2.23;;;2.13;;
4694;SDS011;2361;49.540;8.390;2023-04-25T11:41:57;3.30;;;1.90;;
4694;SDS011;2361;49.540;8.390;2023-04-25T11:44:25;4.40;;;2.17;;
4694;SDS011;2361;49.540;8.390;2023-04-25T11:46:53;3.10;;;2.60;;
4694;SDS011;2361;49.540;8.390;2023-04-25T11:49:20;3.23;;;2.50;;
4694;SDS011;2361;49.540;8.390;2023-04-25T11:51:48;1.47;;;1.37;;
4694;SDS011;2361;49.540;8.390;2023-04-25T11:54:15;2.97;;;2.77;;
4694;SDS011;2361;49.540;8.390;2023-04-25T11:56:45;2.87;;;2.50;;
4694;SDS011;2361;49.540;8.390;2023-04-25T11:59:13;2.13;;;1.90;;
4694;SDS011;2361;49.540;8.390;2023-04-25T12:01:41;5.40;;;2.33;;
4694;SDS011;2361;49.540;8.390;2023-04-25T12:04:17;2.20;;;1.77;;
4694;SDS011;2361;49.540;8.390;2023-04-25T12:06:46;3.30;;;2.93;;
4694;SDS011;2361;49.540;8.390;2023-04-25T12:09:18;2.80;;;2.60;;
4694;SDS011;2361;49.540;8.390;2023-04-25T12:11:57;2.90;;;2.70;;
4694;SDS011;2361;49.540;8.390;2023-04-25T12:14:31;3.07;;;2.60;;
4694;SDS011;2361;49.540;8.390;2023-04-25T12:17:01;3.43;;;3.03;;
4694;SDS011;2361;49.540;8.390;2023-04-25T12:19:32;2.50;;;2.30;;
4694;SDS011;2361;49.540;8.390;2023-04-25T12:22:03;5.23;;;2.70;;
4694;SDS011;2361;49.540;8.390;2023-04-25T12:24:49;2.17;;;1.97;;
4694;SDS011;2361;49.540;8.390;2023-04-25T12:27:17;4.20;;;3.30;;
4694;SDS011;2361;49.540;8.390;2023-04-25T12:29:55;4.10;;;3.13;;
4694;SDS011;2361;49.540;8.390;2023-04-25T12:32:22;7.60;;;4.00;;
4694;SDS011;2361;49.540;8.390;2023-04-25T12:34:50;2.20;;;2.00;;
4694;SDS011;2361;49.540;8.390;2023-04-25T12:37:17;2.10;;;2.00;;
4694;SDS011;2361;49.540;8.390;2023-04-25T12:39:44;4.80;;;2.43;;
4694;SDS011;2361;49.540;8.390;2023-04-25T12:42:11;3.97;;;3.60;;
4694;SDS011;2361;49.540;8.390;2023-04-25T12:44:38;4.50;;;3.43;;
4694;SDS011;2361;49.540;8.390;2023-04-25T12:47:06;3.87;;;3.47;;
4694;SDS011;2361;49.540;8.390;2023-04-25T12:49:34;4.80;;;4.10;;
4694;SDS011;2361;49.540;8.390;2023-04-25T12:52:01;5.87;;;4.03;;
4694;SDS011;2361;49.540;8.390;2023-04-25T12:54:27;7.00;;;4.67;;
4694;SDS011;2361;49.540;8.390;2023-04-25T12:56:54;6.00;;;3.97;;
4694;SDS011;2361;49.540;8.390;2023-04-25T12:59:21;3.90;;;3.43;;
4694;SDS011;2361;49.540;8.390;2023-04-25T13:01:49;3.73;;;3.10;;
4694;SDS011;2361;49.540;8.390;2023-04-25T13:04:16;4.30;;;3.90;;
4694;SDS011;2361;49.540;8.390;2023-04-25T13:06:43;4.33;;;3.80;;
4694;SDS011;2361;49.540;8.390;2023-04-25T13:09:10;4.37;;;3.97;;
4694;SDS011;2361;49.540;8.390;2023-04-25T13:11:38;5.10;;;3.00;;
4694;SDS011;2361;49.540;8.390;2023-04-25T13:14:06;7.60;;;3.47;;
4694;SDS011;2361;49.540;8.390;2023-04-25T13:16:33;6.73;;;3.43;;
4694;SDS011;2361;49.540;8.390;2023-04-25T13:19:01;4.27;;;3.63;;
4694;SDS011;2361;49.540;8.390;2023-04-25T13:21:29;3.07;;;2.67;;
4694;SDS011;2361;49.540;8.390;2023-04-25T13:23:58;5.13;;;4.33;;
4694;SDS011;2361;49.540;8.390;2023-04-25T13:26:25;6.60;;;3.10;;
4694;SDS011;2361;49.540;8.390;2023-04-25T13:28:52;4.27;;;3.10;;
4694;SDS011;2361;49.540;8.390;2023-04-25T13:31:19;6.00;;;3.93;;
4694;SDS011;2361;49.540;8.390;2023-04-25T13:33:47;7.77;;;3.70;;
4694;SDS011;2361;49.540;8.390;2023-04-25T13:36:14;3.23;;;2.90;;
4694;SDS011;2361;49.540;8.390;2023-04-25T13:38:41;3.33;;;3.10;;
4694;SDS011;2361;49.540;8.390;2023-04-25T13:41:09;2.90;;;2.70;;
4694;SDS011;2361;49.540;8.390;2023-04-25T13:43:40;4.60;;;2.73;;
4694;SDS011;2361;49.540;8.390;2023-04-25T13:46:06;5.00;;;3.60;;
4694;SDS011;2361;49.540;8.390;2023-04-25T13:48:36;3.87;;;3.00;;
4694;SDS011;2361;49.540;8.390;2023-04-25T13:51:03;5.07;;;4.07;;
4694;SDS011;2361;49.540;8.390;2023-04-25T13:53:29;4.10;;;3.30;;
4694;SDS011;2361;49.540;8.390;2023-04-25T13:55:56;5.67;;;3.50;;
4694;SDS011;2361;49.540;8.390;2023-04-25T13:58:23;6.87;;;3.43;;
4694;SDS011;2361;49.540;8.390;2023-04-25T14:00:51;3.57;;;3.27;;
4694;SDS011;2361;49.540;8.390;2023-04-25T14:03:18;4.47;;;3.53;;
4694;SDS011;2361;49.540;8.390;2023-04-25T14:05:45;4.53;;;3.33;;
4694;SDS011;2361;49.540;8.390;2023-04-25T14:08:12;5.27;;;3.17;;
4694;SDS011;2361;49.540;8.390;2023-04-25T14:10:39;4.93;;;2.83;;
4694;SDS011;2361;49.540;8.390;2023-04-25T14:13:06;7.40;;;3.60;;
4694;SDS011;2361;49.540;8.390;2023-04-25T14:15:35;4.70;;;3.20;;
4694;SDS011;2361;49.540;8.390;2023-04-25T14:18:03;5.60;;;3.93;;
4694;SDS011;2361;49.540;8.390;2023-04-25T14:20:30;4.13;;;3.70;;
4694;SDS011;2361;49.540;8.390;2023-04-25T14:22:57;4.13;;;3.50;;
4694;SDS011;2361;49.540;8.390;2023-04-25T14:25:24;3.33;;;3.13;;
4694;SDS011;2361;49.540;8.390;2023-04-25T14:27:51;4.93;;;3.50;;
4694;SDS011;2361;49.540;8.390;2023-04-25T14:30:19;3.10;;;2.90;;
4694;SDS011;2361;49.540;8.390;2023-04-25T14:32:48;3.67;;;3.37;;
4694;SDS011;2361;49.540;8.390;2023-04-25T14:35:16;4.20;;;3.20;;
4694;SDS011;2361;49.540;8.390;2023-04-25T14:37:43;2.73;;;2.53;;
4694;SDS011;2361;49.540;8.390;2023-04-25T14:40:10;5.00;;;2.80;;
4694;SDS011;2361;49.540;8.390;2023-04-25T14:42:39;3.27;;;2.90;;
4694;SDS011;2361;49.540;8.390;2023-04-25T14:45:07;8.40;;;3.13;;
4694;SDS011;2361;49.540;8.390;2023-04-25T14:47:39;4.57;;;3.53;;
4694;SDS011;2361;49.540;8.390;2023-04-25T14:50:07;3.40;;;3.10;;
4694;SDS011;2361;49.540;8.390;2023-04-25T14:52:34;5.10;;;3.37;;
4694;SDS011;2361;49.540;8.390;2023-04-25T14:55:02;2.93;;;2.30;;
4694;SDS011;2361;49.540;8.390;2023-04-25T14:57:33;5.67;;;3.60;;
4694;SDS011;2361;49.540;8.390;2023-04-25T15:00:02;4.40;;;3.30;;
4694;SDS011;2361;49.540;8.390;2023-04-25T15:02:33;7.00;;;3.50;;
4694;SDS011;2361;49.540;8.390;2023-04-25T15:05:00;11.53;;;3.40;;
4694;SDS011;2361;49.540;8.390;2023-04-25T15:07:28;3.23;;;2.13;;
4694;SDS011;2361;49.540;8.390;2023-04-25T15:09:55;4.27;;;2.70;;
4694;SDS011;2361;49.540;8.390;2023-04-25T15:12:22;3.10;;;2.80;;
4694;SDS011;2361;49.540;8.390;2023-04-25T15:14:52;3.90;;;2.97;;
4694;SDS011;2361;49.540;8.390;2023-04-25T15:17:19;2.17;;;1.97;;
4694;SDS011;2361;49.540;8.390;2023-04-25T15:19:46;2.60;;;2.30;;
4694;SDS011;2361;49.540;8.390;2023-04-25T15:22:13;2.30;;;1.70;;
4694;SDS011;2361;49.540;8.390;2023-04-25T15:24:40;3.13;;;2.30;;
4694;SDS011;2361;49.540;8.390;2023-04-25T15:27:07;3.13;;;2.30;;
4694;SDS011;2361;49.540;8.390;2023-04-25T15:29:34;2.53;;;2.33;;
4694;SDS011;2361;49.540;8.390;2023-04-25T15:32:01;4.97;;;2.30;;
4694;SDS011;2361;49.540;8.390;2023-04-25T15:34:28;3.37;;;1.93;;
4694;SDS011;2361;49.540;8.390;2023-04-25T15:36:55;3.20;;;2.90;;